Arnolds Park, IA

4:17 PM CDT on October 23, 2014 (GMT -0500)
Milford Fire Station | Change Station
CLOSE
Current Station
Personal Weather Station
Location: Milford, IA
Elevation: 1443 ft
Nearby Weather Stations

Elev 1443 ft 43.33 °N, 95.15 °W | Updated 7 seconds ago

Clear
Clear
68.2 °F
Feels Like 68.2 °F
N
3.0
Wind Variable Wind from SW
Gusts 11.0 mph

Today
High -- | Low -- °F
--% Chance of Precip.
Yesterday
High -- | Low -- °F
Precip. -- in
7:44 AM 6:24 PM
Waning Crescent, 0% visible
Pressure 29.98 in
Visibility 10.0 miles
Clouds Clear
Dew Point 46 °F
Humidity 45%
Rainfall 0.00 in
Snow Depth Not available.
UV 2 out of 12
Pollen .80 out of 12
Air Quality Not available.
Flu Activity Sporadic
METAR KSPW 232053Z AUTO 25009KT 10SM CLR 21/07 A2999 RMK AO2 SLP152 T02110067 56014 TSNO

More Conditions Fewer Conditions

Pressure 29.98 in
Visibility 10.0 miles
Clouds Clear
Dew Point 46 °F
Humidity 45%
Rainfall 0.00 in
Snow Depth Not available.
UV 2 out of 12
Pollen .80 out of 12
Air Quality Not available.
Flu Activity Sporadic
METAR KSPW 232053Z AUTO 25009KT 10SM CLR 21/07 A2999 RMK AO2 SLP152 T02110067 56014 TSNO

More Conditions Fewer Conditions

10-Day Weather Forecast

Almanac

Astronomy

Oct. 23, 2014 Rise Set
Actual Time 7:44 AM CDT 6:24 PM CDT
Civil Twilight 7:15 AM CDT 6:53 PM CDT
Nautical Twilight 6:41 AM CDT 7:27 PM CDT
Astronomical Twilight 6:08 AM CDT 8:00 PM CDT
Moon 7:24 AM CDT 6:26 PM CDT
Length of Visible Light 11h 38m
Length of Day
10h 40m
Tomorrow will be 2m 45s shorter.
Waning Crescent, 0% of the Moon is Illuminated
Today
Waning Crescent
Oct 23
New
Oct 30
First Quarter
Nov 6
Full
Nov 14
Last Quarter

Today's Extremes

State Highs State Lows

Community

WunderPhotos

Upload Photos

1,764,372 photos uploaded!

WunderBlogs® & News

Nearby

Snow Depth

Station Depth Elevation
No new snow has been reported.

Earthquake Activity

City Distance Mag. Time & Date
No recent earthquake activity has been reported nearby.
Minimum magnitude displayed is 2.5.

Coastal Water Temperatures

Place Temperature
No Stations Reporting

Nearby Weather Stations